Point Hope, AK

2:26 AM AKST on February 26, 2017 (GMT -0900)
Point Hope | | Change Station
Active Advisory: Winter Storm Warning

Elev 13 ft 68.35 °N, 166.80 °W | Updated 8 minutes ago

Snow
Snow
28 °F
Feels Like 16 °F
N
17
Wind Variable Wind from SSW

Today
High -- | Low -- °F
--% Chance of Precip.
Yesterday
High -- | Low -- °F
Precip. -- in
Pressure 29.65 in
Visibility 3.0 miles
Clouds Mostly Cloudy 500 ft
Overcast 1100 ft
Windchill 16 °F
Dew Point 28 °F
Humidity 100%
Rainfall 0.00 in
Snow Depth Not available.
9:38 AM 7:03 PM
Waning Crescent, 0% visible
SPECI PAPO 261118Z AUTO 20015KT 3SM UP BR BKN005 OVC011 M02/M02 A2965 RMK AO2 UPB05SNE05 P0000 FZRANO
Pressure 29.65 in
Visibility 3.0 miles
Clouds Mostly Cloudy 500 ft
Overcast 1100 ft
Windchill 16 °F
Dew Point 28 °F
Humidity 100%
Rainfall 0.00 in
Snow Depth Not available.
9:38 AM 7:03 PM
Waning Crescent, 0% visible
SPECI PAPO 261118Z AUTO 20015KT 3SM UP BR BKN005 OVC011 M02/M02 A2965 RMK AO2 UPB05SNE05 P0000 FZRANO

Get Your Daily Forecast Email!

Thanks for signing up!

Be on the lookout for a verification email in your inbox.

You'll start receiving the daily forecast at 8 AM.

×

10-Day Weather Forecast

Almanac

Astronomy

Feb. 26, 2017 Rise Set
Actual Time
Civil Twilight
Nautical Twilight
Astronomical Twilight
Moon
Length of Visible Light
Length of Day
Tomorrow will be .
, % of the Moon is Illuminated

Today's Extremes

State Highs State Lows

Community

WunderPhotos

Upload Photos

1,962,540 photos uploaded!

WunderBlog® & News

Nearby

Air Quality

  Air Quality AQ Index Pollutant
Not available.

Snow Depth

Station Depth Elevation

Earthquake Activity

City Distance Mag. Time & Date
Minimum magnitude displayed is 2.5.

Coastal Water Temperatures

Place Temperature

Stations

Nearby Weather Stations

Station Location Temp. Windchill Dew Point Humidity Wind Precip. Elev Updated Type
                   

Watches & Warnings

Winter Storm Warning
Issued: 9:31 PM AKST Feb. 25, 2017 – National Weather Service

... Winter Storm Warning remains in effect until 6 am akst
Sunday...

* location... north of Cape Krusenstern

* snow... 5 to 10 inches.

* Winds... southeast winds 20 to 30 mph with gusts to 45 mph.

* Blowing snow... reducing visibility to one half mile at times.

* Timing... snow, heavy at times will continue tonight.
Conditions will improve Sunday morning as winds subside.

* Impacts... visibility will be greatly reduced. Travel and
outdoor activities will be difficult.

Precautionary/preparedness actions...

A Winter Storm Warning means one or more significant winter
weather hazards are occurring or expected.